createdAt,value
2023-04-16T00:01:16.020Z,87.18
2023-04-16T00:03:43.078Z,87.58
2023-04-16T00:06:11.397Z,87.55
2023-04-16T00:09:01.792Z,92.04
2023-04-16T00:11:28.461Z,87.32
2023-04-16T00:13:55.312Z,87.44
2023-04-16T00:16:22.033Z,87.75
2023-04-16T00:18:48.642Z,87.52
2023-04-16T00:21:16.145Z,87.11
2023-04-16T00:23:42.836Z,87.76
2023-04-16T00:26:09.723Z,87.63
2023-04-16T00:28:36.700Z,86.97
2023-04-16T00:31:25.270Z,87.81
2023-04-16T00:33:52.011Z,87.42
2023-04-16T00:36:22.630Z,87.26
2023-04-16T00:38:49.248Z,87.10
2023-04-16T00:41:16.797Z,87.47
2023-04-16T00:43:43.319Z,88.32
2023-04-16T00:46:10.225Z,87.78
2023-04-16T00:48:40.899Z,88.08
2023-04-16T00:51:08.477Z,87.85
2023-04-16T00:53:35.949Z,87.97
2023-04-16T00:56:04.299Z,88.29
2023-04-16T00:58:32.576Z,88.28
2023-04-16T01:00:59.651Z,87.89
2023-04-16T01:03:41.531Z,88.84
2023-04-16T01:06:08.461Z,87.66
2023-04-16T01:08:35.448Z,87.22
2023-04-16T01:11:02.826Z,87.65
2023-04-16T01:13:29.870Z,86.84
2023-04-16T01:15:56.932Z,87.11
2023-04-16T01:18:24.370Z,87.35
2023-04-16T01:20:51.300Z,87.74
2023-04-16T01:23:18.984Z,88.10
2023-04-16T01:25:46.384Z,87.02
2023-04-16T01:28:13.282Z,87.24
2023-04-16T01:30:41.632Z,87.31
2023-04-16T01:33:11.224Z,87.52
2023-04-16T01:35:41.476Z,87.74
2023-04-16T01:38:09.377Z,87.68
2023-04-16T01:40:39.672Z,86.94
2023-04-16T01:43:08.544Z,86.86
2023-04-16T01:45:35.926Z,87.88
2023-04-16T01:48:04.353Z,88.28
2023-04-16T01:50:31.529Z,87.29
2023-04-16T01:52:58.146Z,87.71
2023-04-16T01:55:24.956Z,86.98
2023-04-16T01:57:51.527Z,86.82
2023-04-16T02:00:18.539Z,86.43
2023-04-16T02:02:45.833Z,86.62
2023-04-16T02:05:12.825Z,87.20
2023-04-16T02:07:39.656Z,86.76
2023-04-16T02:10:07.676Z,86.46
2023-04-16T02:12:34.448Z,87.32
2023-04-16T02:15:01.067Z,88.09
2023-04-16T02:17:27.787Z,87.57
2023-04-16T02:19:54.431Z,87.27
2023-04-16T02:22:21.026Z,87.73
2023-04-16T02:24:47.666Z,87.38
2023-04-16T02:27:14.259Z,86.98
2023-04-16T02:29:40.863Z,87.75
2023-04-16T02:32:07.537Z,87.90
2023-04-16T02:34:36.681Z,87.83
2023-04-16T02:37:05.735Z,86.61
2023-04-16T02:39:32.374Z,87.07
2023-04-16T02:41:59.444Z,87.06
2023-04-16T02:44:26.272Z,86.62
2023-04-16T02:46:52.774Z,86.69
2023-04-16T02:49:19.368Z,86.23
2023-04-16T02:51:46.293Z,86.94
2023-04-16T02:54:12.943Z,86.79
2023-04-16T02:56:39.619Z,86.87
2023-04-16T02:59:06.407Z,87.85
2023-04-16T03:01:33.140Z,87.37
2023-04-16T03:04:00.005Z,86.61
2023-04-16T03:06:27.181Z,86.97
2023-04-16T03:08:53.903Z,87.68
2023-04-16T03:11:20.661Z,86.88
2023-04-16T03:13:47.323Z,87.17
2023-04-16T03:16:13.918Z,86.68
2023-04-16T03:18:40.776Z,87.61
2023-04-16T03:21:07.312Z,87.73
2023-04-16T03:23:33.871Z,87.54
2023-04-16T03:26:00.822Z,87.21
2023-04-16T03:28:27.484Z,87.66
2023-04-16T03:30:54.281Z,87.21
2023-04-16T03:33:21.888Z,87.81
2023-04-16T03:35:55.754Z,89.80
2023-04-16T03:38:23.279Z,87.21
2023-04-16T03:40:49.864Z,87.77
2023-04-16T03:43:16.614Z,87.78
2023-04-16T03:45:46.784Z,88.98
2023-04-16T03:48:13.593Z,87.75
2023-04-16T03:50:40.438Z,88.56
2023-04-16T03:53:06.961Z,88.39
2023-04-16T03:55:33.612Z,88.05
2023-04-16T03:58:03.072Z,88.05
2023-04-16T04:00:30.528Z,88.37
2023-04-16T04:02:57.655Z,87.73
2023-04-16T04:05:24.699Z,87.26
2023-04-16T04:07:51.374Z,88.26
2023-04-16T04:10:18.058Z,88.67
2023-04-16T04:12:44.694Z,87.88
2023-04-16T04:15:11.942Z,87.99
2023-04-16T04:17:38.694Z,88.41
2023-04-16T04:20:06.080Z,88.20
2023-04-16T04:22:32.706Z,87.55
2023-04-16T04:24:59.369Z,88.55
2023-04-16T04:27:26.382Z,88.05
2023-04-16T04:29:56.746Z,88.51
2023-04-16T04:32:23.555Z,88.34
2023-04-16T04:34:50.372Z,88.24
2023-04-16T04:37:17.033Z,87.44
2023-04-16T04:39:43.651Z,87.13
2023-04-16T04:42:10.269Z,87.93
2023-04-16T04:44:36.831Z,86.92
2023-04-16T04:47:03.303Z,88.30
2023-04-16T04:49:30.993Z,87.96
2023-04-16T04:51:57.668Z,87.72
2023-04-16T04:54:24.183Z,88.43
2023-04-16T04:56:52.576Z,87.64
2023-04-16T04:59:20.957Z,87.82
2023-04-16T05:01:47.649Z,88.01
2023-04-16T05:04:14.454Z,88.33
2023-04-16T05:06:41.228Z,87.53
2023-04-16T05:09:11.887Z,87.49
2023-04-16T05:11:39.323Z,87.91
2023-04-16T05:14:05.954Z,87.81
2023-04-16T05:16:32.664Z,87.89
2023-04-16T05:18:59.369Z,88.37
2023-04-16T05:21:26.610Z,88.37
2023-04-16T05:23:53.732Z,88.43
2023-04-16T05:26:20.896Z,87.64
2023-04-16T05:28:47.509Z,87.96
2023-04-16T05:31:14.618Z,87.74
2023-04-16T05:33:41.331Z,87.89
2023-04-16T05:36:08.086Z,87.94
2023-04-16T05:38:35.434Z,87.82
2023-04-16T05:41:01.961Z,88.40
2023-04-16T05:43:28.535Z,87.64
2023-04-16T05:45:55.728Z,87.79
2023-04-16T05:48:22.605Z,87.13
2023-04-16T05:50:49.756Z,88.71
2023-04-16T05:53:16.867Z,87.60
2023-04-16T05:55:43.566Z,88.19
2023-04-16T05:58:10.273Z,88.05
2023-04-16T06:00:37.051Z,88.73
2023-04-16T06:03:04.282Z,87.88
2023-04-16T06:05:31.359Z,87.91
2023-04-16T06:07:58.036Z,87.78
2023-04-16T06:10:24.642Z,87.78
2023-04-16T06:12:51.388Z,87.72
2023-04-16T06:15:18.032Z,87.89
2023-04-16T06:17:48.071Z,87.33
2023-04-16T06:20:14.752Z,88.01
2023-04-16T06:22:44.185Z,87.45
2023-04-16T06:25:11.039Z,87.07
2023-04-16T06:27:43.003Z,87.40
2023-04-16T06:30:16.745Z,88.53
2023-04-16T06:32:51.482Z,88.23
2023-04-16T06:35:20.195Z,87.52
2023-04-16T06:37:47.611Z,87.25
2023-04-16T06:40:16.950Z,87.08
2023-04-16T06:42:46.064Z,85.80
2023-04-16T06:45:18.347Z,86.73
2023-04-16T06:47:45.067Z,86.26
2023-04-16T06:50:11.985Z,86.32
2023-04-16T06:52:38.663Z,86.00
2023-04-16T06:55:07.254Z,86.68
2023-04-16T06:57:35.667Z,86.06
2023-04-16T07:00:07.833Z,85.90
2023-04-16T07:02:36.944Z,86.35
2023-04-16T07:05:04.174Z,85.73
2023-04-16T07:07:31.439Z,85.75
2023-04-16T07:09:59.094Z,86.02
2023-04-16T07:12:25.991Z,85.70
2023-04-16T07:14:52.860Z,85.08
2023-04-16T07:17:19.848Z,85.43
2023-04-16T07:19:46.842Z,84.90
2023-04-16T07:22:21.170Z,83.66
2023-04-16T07:24:53.402Z,84.29
2023-04-16T07:27:23.435Z,84.06
2023-04-16T07:29:54.298Z,84.57
2023-04-16T07:32:24.486Z,84.05
2023-04-16T07:34:52.692Z,83.35
2023-04-16T07:37:19.609Z,84.23
2023-04-16T07:39:47.346Z,82.60
2023-04-16T07:42:14.511Z,83.07
2023-04-16T07:44:41.216Z,83.03
2023-04-16T07:47:07.835Z,82.46
2023-04-16T07:49:34.460Z,82.37
2023-04-16T07:52:01.424Z,82.81
2023-04-16T07:54:31.289Z,82.32
2023-04-16T07:57:42.878Z,82.77
2023-04-16T08:01:17.485Z,78.92
2023-04-16T08:05:08.523Z,81.39
2023-04-16T08:10:43.115Z,78.17
2023-04-16T08:13:14.856Z,77.08
2023-04-16T08:15:41.856Z,77.61
2023-04-16T08:20:40.162Z,76.50
2023-04-16T08:23:07.217Z,75.89
2023-04-16T08:25:36.446Z,75.81
2023-04-16T08:28:05.863Z,74.54
2023-04-16T08:30:35.436Z,73.74
2023-04-16T08:33:02.267Z,73.83
2023-04-16T08:35:29.019Z,72.89
2023-04-16T08:38:08.573Z,72.13
2023-04-16T08:40:41.484Z,69.33
2023-04-16T08:43:15.992Z,70.64
2023-04-16T08:45:44.005Z,70.01
2023-04-16T08:48:17.536Z,70.08
2023-04-16T08:50:49.148Z,69.21
2023-04-16T08:53:29.834Z,68.15
2023-04-16T08:56:00.453Z,65.61
2023-04-16T08:58:30.645Z,65.94
2023-04-16T09:00:57.615Z,65.65
2023-04-16T09:03:24.710Z,64.52
2023-04-16T09:05:52.281Z,64.50
2023-04-16T09:08:21.827Z,64.12
2023-04-16T09:10:49.076Z,63.51
2023-04-16T09:13:17.898Z,61.49
2023-04-16T09:16:00.171Z,64.02
2023-04-16T09:18:32.243Z,61.50
2023-04-16T09:20:59.652Z,61.73
2023-04-16T09:23:26.488Z,60.36
2023-04-16T09:26:25.797Z,57.37
2023-04-16T09:28:54.847Z,60.22
2023-04-16T09:31:26.660Z,60.32
2023-04-16T09:34:24.869Z,58.39
2023-04-16T09:36:57.034Z,59.57
2023-04-16T09:39:23.734Z,57.91
2023-04-16T09:41:54.803Z,56.83
2023-04-16T09:44:21.904Z,57.52
2023-04-16T09:46:51.632Z,57.97
2023-04-16T09:49:21.168Z,57.74
2023-04-16T09:52:01.019Z,56.22
2023-04-16T09:54:42.952Z,54.75
2023-04-16T09:57:09.664Z,54.95
2023-04-16T10:02:23.439Z,54.75
2023-04-16T10:04:54.962Z,54.42
2023-04-16T10:07:22.074Z,54.37
2023-04-16T10:09:51.118Z,53.00
2023-04-16T10:12:17.851Z,51.96
2023-04-16T10:14:44.716Z,51.46
2023-04-16T10:17:11.671Z,50.90
2023-04-16T10:19:40.930Z,50.60
2023-04-16T10:22:07.663Z,50.74
2023-04-16T10:24:37.217Z,49.78
2023-04-16T10:27:04.108Z,49.37
2023-04-16T10:29:34.898Z,50.19
2023-04-16T10:32:02.040Z,49.69
2023-04-16T10:34:29.384Z,48.71
2023-04-16T10:36:58.673Z,49.23
2023-04-16T10:39:28.239Z,48.54
2023-04-16T10:42:12.549Z,45.37
2023-04-16T10:44:43.423Z,43.81
2023-04-16T10:47:14.676Z,44.70
2023-04-16T10:49:42.608Z,44.95
2023-04-16T10:52:15.269Z,44.41
2023-04-16T10:54:41.859Z,45.25
2023-04-16T10:57:12.352Z,44.00
2023-04-16T10:59:42.526Z,44.09
2023-04-16T11:02:26.461Z,38.58
2023-04-16T11:04:57.321Z,38.51
2023-04-16T11:07:33.799Z,41.08
2023-04-16T11:10:02.340Z,42.02
2023-04-16T11:12:29.140Z,42.18
2023-04-16T11:15:05.143Z,38.34
2023-04-16T11:17:43.849Z,39.58
2023-04-16T11:20:20.171Z,42.07
2023-04-16T11:22:58.064Z,42.01
2023-04-16T11:25:29.912Z,42.22
2023-04-16T11:28:00.967Z,42.22
2023-04-16T11:30:32.125Z,41.70
2023-04-16T11:32:59.109Z,42.40
2023-04-16T11:35:28.401Z,42.53
2023-04-16T11:37:58.293Z,41.65
2023-04-16T11:40:25.477Z,42.58
2023-04-16T11:42:52.105Z,43.07
2023-04-16T11:45:19.576Z,43.43
2023-04-16T11:47:53.474Z,42.35
2023-04-16T11:50:23.047Z,42.89
2023-04-16T11:52:54.184Z,42.93
2023-04-16T11:55:22.157Z,43.58
2023-04-16T11:57:49.664Z,42.83
2023-04-16T12:00:19.282Z,43.27
2023-04-16T12:02:51.891Z,42.48
2023-04-16T12:05:31.202Z,42.26
2023-04-16T12:08:12.113Z,42.51
2023-04-16T12:10:55.600Z,43.36
2023-04-16T12:13:24.549Z,43.11
2023-04-16T12:15:58.161Z,41.71
2023-04-16T12:18:27.436Z,43.62
2023-04-16T12:20:55.218Z,43.66
2023-04-16T12:23:33.073Z,42.79
2023-04-16T12:26:10.563Z,40.59
2023-04-16T12:28:41.684Z,43.90
2023-04-16T12:31:08.498Z,43.37
2023-04-16T12:33:40.407Z,42.17
2023-04-16T12:36:20.126Z,40.87
2023-04-16T12:38:46.791Z,43.07
2023-04-16T12:41:13.458Z,42.51
2023-04-16T12:43:40.412Z,43.20
2023-04-16T12:46:07.141Z,42.16
2023-04-16T12:48:33.868Z,43.14
2023-04-16T12:51:02.840Z,42.36
2023-04-16T12:53:29.823Z,42.94
2023-04-16T12:55:56.543Z,42.48
2023-04-16T12:58:25.638Z,42.19
2023-04-16T13:00:52.232Z,42.65
2023-04-16T13:03:24.132Z,42.25
2023-04-16T13:05:51.310Z,41.89
2023-04-16T13:08:18.047Z,41.95
2023-04-16T13:10:44.928Z,42.23
2023-04-16T13:13:11.551Z,42.58
2023-04-16T13:15:38.427Z,43.37
2023-04-16T13:18:05.722Z,42.02
2023-04-16T13:20:33.516Z,42.27
2023-04-16T13:23:06.088Z,42.03
2023-04-16T13:25:35.741Z,41.78
2023-04-16T13:28:10.528Z,41.43
2023-04-16T13:30:37.509Z,42.45
2023-04-16T13:33:04.390Z,42.14
2023-04-16T13:35:31.311Z,41.78
2023-04-16T13:38:00.901Z,41.45
2023-04-16T13:40:27.644Z,41.27
2023-04-16T13:42:56.809Z,41.25
2023-04-16T13:45:23.536Z,41.27
2023-04-16T13:47:53.493Z,40.85
2023-04-16T13:50:23.147Z,41.00
2023-04-16T13:53:00.309Z,40.88
2023-04-16T13:55:33.405Z,40.44
2023-04-16T13:58:03.965Z,41.16
2023-04-16T14:00:31.495Z,40.98
2023-04-16T14:02:58.655Z,41.08
2023-04-16T14:05:27.143Z,41.19
2023-04-16T14:07:53.964Z,41.14
2023-04-16T14:10:22.199Z,41.20
2023-04-16T14:12:49.034Z,41.38
2023-04-16T14:15:15.799Z,41.86
2023-04-16T14:17:45.465Z,41.89
2023-04-16T14:20:13.470Z,41.89
2023-04-16T14:22:42.539Z,42.31
2023-04-16T14:25:13.730Z,42.28
2023-04-16T14:27:41.396Z,42.24
2023-04-16T14:30:13.650Z,42.54
2023-04-16T14:32:40.858Z,43.17
2023-04-16T14:35:08.300Z,43.27
2023-04-16T14:37:36.369Z,43.89
2023-04-16T14:40:10.822Z,43.19
2023-04-16T14:42:40.057Z,43.18
2023-04-16T14:45:07.640Z,43.62
2023-04-16T14:47:34.888Z,43.36
2023-04-16T14:50:06.479Z,43.43
2023-04-16T14:52:33.099Z,43.72
2023-04-16T14:54:59.784Z,43.94
2023-04-16T14:57:47.306Z,42.23
2023-04-16T15:00:20.289Z,42.82
2023-04-16T15:02:51.942Z,42.92
2023-04-16T15:05:18.878Z,42.98
2023-04-16T15:07:45.591Z,42.92
2023-04-16T15:10:14.380Z,43.61
2023-04-16T15:12:41.074Z,43.47
2023-04-16T15:15:17.614Z,42.98
2023-04-16T15:17:44.429Z,42.97
2023-04-16T15:20:11.789Z,43.30
2023-04-16T15:22:38.535Z,42.48
2023-04-16T15:25:06.436Z,42.75
2023-04-16T15:27:33.269Z,42.84
2023-04-16T15:30:00.150Z,43.27
2023-04-16T15:32:29.413Z,42.77
2023-04-16T15:35:00.833Z,42.30
2023-04-16T15:37:28.076Z,42.41
2023-04-16T15:39:55.737Z,42.55
2023-04-16T15:42:26.104Z,42.48
2023-04-16T15:44:53.073Z,42.36
2023-04-16T15:47:21.159Z,42.03
2023-04-16T15:49:47.740Z,42.02
2023-04-16T15:52:14.790Z,42.07
2023-04-16T15:54:41.361Z,42.08
2023-04-16T15:57:08.099Z,42.48
2023-04-16T15:59:34.733Z,41.74
2023-04-16T16:02:01.500Z,42.38
2023-04-16T16:04:28.243Z,42.10
2023-04-16T16:06:55.265Z,42.16
2023-04-16T16:09:28.364Z,40.58
2023-04-16T16:11:55.819Z,42.34
2023-04-16T16:14:22.618Z,42.70
2023-04-16T16:16:49.493Z,42.59
2023-04-16T16:19:18.573Z,41.95
2023-04-16T16:21:45.377Z,42.47
2023-04-16T16:24:12.552Z,41.95
2023-04-16T16:26:39.092Z,42.29
2023-04-16T16:29:05.741Z,42.90
2023-04-16T16:31:32.400Z,42.58
2023-04-16T16:34:02.808Z,42.31
2023-04-16T16:36:29.890Z,42.31
2023-04-16T16:39:04.262Z,42.25
2023-04-16T16:41:31.190Z,42.93
2023-04-16T16:44:05.303Z,42.84
2023-04-16T16:46:32.024Z,42.56
2023-04-16T16:48:58.930Z,42.76
2023-04-16T16:51:26.342Z,43.12
2023-04-16T16:53:53.040Z,43.76
2023-04-16T16:56:22.012Z,43.37
2023-04-16T16:58:52.065Z,43.85
2023-04-16T17:01:21.066Z,44.66
2023-04-16T17:03:47.852Z,44.50
2023-04-16T17:06:14.810Z,44.85
2023-04-16T17:08:41.555Z,44.99
2023-04-16T17:11:08.516Z,45.11
2023-04-16T17:13:35.620Z,45.78
2023-04-16T17:16:02.245Z,45.38
2023-04-16T17:18:31.326Z,45.74
2023-04-16T17:20:57.965Z,45.18
2023-04-16T17:23:24.910Z,45.58
2023-04-16T17:25:51.731Z,45.89
2023-04-16T17:28:18.992Z,46.26
2023-04-16T17:30:51.223Z,45.83
2023-04-16T17:33:21.449Z,46.66
2023-04-16T17:35:50.835Z,46.11
2023-04-16T17:38:17.527Z,46.63
2023-04-16T17:40:44.707Z,46.41
2023-04-16T17:45:54.723Z,46.57
2023-04-16T17:48:21.257Z,46.75
2023-04-16T17:51:00.697Z,47.19
2023-04-16T17:53:30.140Z,47.90
2023-04-16T17:55:58.059Z,47.82
2023-04-16T17:58:26.508Z,48.17
2023-04-16T18:00:53.195Z,48.65
2023-04-16T18:03:21.975Z,48.95
2023-04-16T18:05:51.570Z,49.40
2023-04-16T18:08:20.456Z,49.60
2023-04-16T18:10:47.123Z,49.72
2023-04-16T18:13:16.957Z,50.24
2023-04-16T18:15:43.886Z,50.81
2023-04-16T18:18:18.987Z,51.14
2023-04-16T18:20:46.049Z,50.96
2023-04-16T18:23:12.692Z,51.34
2023-04-16T18:25:40.347Z,51.95
2023-04-16T18:28:06.977Z,51.88
2023-04-16T18:30:34.363Z,52.37
2023-04-16T18:35:34.920Z,52.12
2023-04-16T18:38:04.208Z,52.08
2023-04-16T18:40:34.407Z,53.89
2023-04-16T18:43:01.572Z,53.23
2023-04-16T18:45:28.376Z,53.45
2023-04-16T18:47:58.433Z,53.58
2023-04-16T18:50:26.092Z,53.98
2023-04-16T18:52:55.935Z,54.17
2023-04-16T18:55:22.632Z,54.06
2023-04-16T18:57:49.369Z,54.31
2023-04-16T19:00:16.371Z,54.17
2023-04-16T19:02:42.989Z,54.27
2023-04-16T19:05:09.876Z,54.78
2023-04-16T19:07:41.767Z,54.43
2023-04-16T19:10:11.199Z,54.30
2023-04-16T19:12:38.271Z,54.93
2023-04-16T19:15:05.844Z,54.81
2023-04-16T19:17:32.429Z,55.47
2023-04-16T19:19:59.150Z,54.98
2023-04-16T19:22:28.366Z,55.56
2023-04-16T19:24:55.986Z,55.59
2023-04-16T19:27:22.912Z,55.89
2023-04-16T19:29:52.091Z,56.18
2023-04-16T19:32:18.725Z,55.96
2023-04-16T19:34:48.980Z,56.27
2023-04-16T19:37:15.766Z,56.62
2023-04-16T19:42:27.988Z,57.02
2023-04-16T19:44:55.023Z,56.83
2023-04-16T19:47:24.301Z,57.43
2023-04-16T19:49:55.680Z,57.75
2023-04-16T19:52:25.057Z,58.11
2023-04-16T19:54:54.372Z,57.39
2023-04-16T19:57:21.056Z,58.38
2023-04-16T19:59:47.706Z,58.56
2023-04-16T20:02:14.325Z,58.78
2023-04-16T20:04:41.729Z,59.11
2023-04-16T20:07:11.150Z,59.12
2023-04-16T20:09:42.808Z,59.61
2023-04-16T20:12:13.599Z,59.00
2023-04-16T20:14:42.121Z,60.21
2023-04-16T20:17:10.407Z,59.78
2023-04-16T20:19:40.661Z,60.30
2023-04-16T20:22:13.375Z,60.01
2023-04-16T20:24:47.317Z,60.49
2023-04-16T20:27:18.126Z,60.30
2023-04-16T20:29:44.954Z,60.67
2023-04-16T20:32:11.843Z,60.74
2023-04-16T20:34:44.160Z,61.10
2023-04-16T20:37:15.158Z,60.71
2023-04-16T20:39:48.952Z,61.12
2023-04-16T20:42:16.486Z,60.84
2023-04-16T20:44:50.457Z,61.76
2023-04-16T20:47:17.447Z,61.42
2023-04-16T20:49:46.841Z,61.79
2023-04-16T20:52:14.488Z,60.96
2023-04-16T20:54:41.570Z,61.10
2023-04-16T20:57:08.726Z,61.73
2023-04-16T20:59:36.819Z,61.51
2023-04-16T21:02:06.992Z,61.93
2023-04-16T21:04:35.561Z,61.94
2023-04-16T21:07:04.371Z,62.07
2023-04-16T21:09:31.648Z,61.87
2023-04-16T21:11:58.532Z,62.13
2023-04-16T21:14:25.596Z,62.51
2023-04-16T21:16:52.210Z,62.18
2023-04-16T21:19:21.637Z,62.68
2023-04-16T21:21:49.792Z,62.43
2023-04-16T21:24:17.090Z,63.01
2023-04-16T21:26:44.135Z,62.60
2023-04-16T21:29:11.244Z,62.79
2023-04-16T21:31:38.147Z,62.89
2023-04-16T21:34:05.027Z,63.27
2023-04-16T21:36:34.857Z,62.66
2023-04-16T21:39:01.563Z,63.12
2023-04-16T21:41:28.143Z,63.30
2023-04-16T21:43:54.808Z,63.33
2023-04-16T21:46:21.625Z,63.44
2023-04-16T21:48:49.917Z,63.77
2023-04-16T21:51:16.858Z,63.55
2023-04-16T21:53:43.566Z,63.96
2023-04-16T21:56:10.304Z,64.08
2023-04-16T21:58:37.098Z,63.97
2023-04-16T22:01:06.490Z,63.67
2023-04-16T22:03:40.329Z,63.95
2023-04-16T22:06:07.981Z,63.79
2023-04-16T22:08:34.814Z,64.10
2023-04-16T22:11:02.714Z,65.06
2023-04-16T22:13:32.375Z,64.25
2023-04-16T22:16:02.704Z,64.50
2023-04-16T22:18:32.858Z,65.08
2023-04-16T22:20:59.968Z,65.62
2023-04-16T22:23:26.695Z,65.59
2023-04-16T22:25:55.926Z,65.73
2023-04-16T22:28:23.201Z,66.10
2023-04-16T22:30:49.744Z,65.73
2023-04-16T22:33:16.408Z,65.22
2023-04-16T22:35:43.110Z,65.85
2023-04-16T22:38:10.211Z,66.20
2023-04-16T22:40:36.924Z,65.89
2023-04-16T22:43:03.526Z,65.85
2023-04-16T22:45:30.155Z,66.80
2023-04-16T22:47:56.675Z,66.79
2023-04-16T22:50:23.214Z,66.63
2023-04-16T22:52:49.759Z,66.72
2023-04-16T22:55:16.744Z,66.23
2023-04-16T22:57:43.361Z,66.95
2023-04-16T23:00:15.808Z,66.64
2023-04-16T23:02:43.256Z,67.20
2023-04-16T23:05:10.142Z,67.11
2023-04-16T23:07:36.756Z,67.57
2023-04-16T23:10:03.479Z,67.34
2023-04-16T23:12:29.941Z,67.66
2023-04-16T23:14:56.866Z,67.45
2023-04-16T23:17:23.569Z,68.04
2023-04-16T23:19:50.246Z,68.08
2023-04-16T23:22:16.833Z,68.71
2023-04-16T23:24:43.390Z,68.68
2023-04-16T23:27:09.934Z,68.41
2023-04-16T23:29:36.609Z,68.97
2023-04-16T23:32:03.161Z,68.40
2023-04-16T23:34:29.766Z,69.60
2023-04-16T23:36:56.391Z,68.83
2023-04-16T23:39:22.927Z,69.01
2023-04-16T23:41:49.506Z,69.42
2023-04-16T23:44:16.569Z,69.25
2023-04-16T23:46:43.475Z,69.18
2023-04-16T23:49:10.216Z,69.47
2023-04-16T23:51:37.031Z,69.68
2023-04-16T23:54:03.694Z,70.46
2023-04-16T23:56:30.342Z,70.15
2023-04-16T23:58:56.947Z,70.50
